createdAt,value
2019-05-06T00:00:04.618Z,9.7
2019-05-06T00:01:04.790Z,10.0
2019-05-06T00:02:04.537Z,10.3
2019-05-06T00:03:05.164Z,10.4
2019-05-06T00:04:05.403Z,11.0
2019-05-06T00:05:06.088Z,9.8
2019-05-06T00:06:06.779Z,9.8
2019-05-06T00:07:07.438Z,10.2
2019-05-06T00:08:08.121Z,10.2
2019-05-06T00:09:08.806Z,10.4
2019-05-06T00:10:09.494Z,10.6
2019-05-06T00:11:10.160Z,9.9
2019-05-06T00:12:10.848Z,10.8
2019-05-06T00:13:11.527Z,10.6
2019-05-06T00:14:14.026Z,9.9
2019-05-06T00:15:14.490Z,10.9
2019-05-06T00:16:14.358Z,11.1
2019-05-06T00:17:14.597Z,10.2
2019-05-06T00:18:14.925Z,10.6
2019-05-06T00:19:15.605Z,11.9
2019-05-06T00:20:16.282Z,11.6
2019-05-06T00:21:16.969Z,11.6
2019-05-06T00:22:17.643Z,10.4
2019-05-06T00:23:18.323Z,10.7
2019-05-06T00:24:19.008Z,11.0
2019-05-06T00:25:19.690Z,11.0
2019-05-06T00:26:20.372Z,11.3
2019-05-06T00:27:21.058Z,11.8
2019-05-06T00:28:21.734Z,12.1
2019-05-06T00:29:24.193Z,11.5
2019-05-06T00:30:24.308Z,11.1
2019-05-06T00:31:24.088Z,11.1
2019-05-06T00:32:24.481Z,12.0
2019-05-06T00:33:25.138Z,11.3
2019-05-06T00:34:25.814Z,11.3
2019-05-06T00:35:26.504Z,12.2
2019-05-06T00:36:27.191Z,11.4
2019-05-06T00:37:27.874Z,11.4
2019-05-06T00:38:28.547Z,11.8
2019-05-06T00:39:29.229Z,10.5
2019-05-06T00:40:29.913Z,12.0
2019-05-06T00:41:30.594Z,11.7
2019-05-06T00:42:31.268Z,11.6
2019-05-06T00:43:34.338Z,11.5
2019-05-06T00:44:34.576Z,11.8
2019-05-06T00:45:34.136Z,11.4
2019-05-06T00:46:34.559Z,12.2
2019-05-06T00:47:34.667Z,12.1
2019-05-06T00:48:35.345Z,12.1
2019-05-06T00:49:36.028Z,13.6
2019-05-06T00:50:36.709Z,13.6
2019-05-06T00:51:37.386Z,12.9
2019-05-06T00:52:38.083Z,12.5
2019-05-06T00:53:38.751Z,13.1
2019-05-06T00:54:39.435Z,13.4
2019-05-06T00:55:40.122Z,14.1
2019-05-06T00:56:40.810Z,14.3
2019-05-06T00:57:43.371Z,13.6
2019-05-06T00:58:43.585Z,14.1
2019-05-06T00:59:44.125Z,14.0
2019-05-06T01:00:44.261Z,14.5
2019-05-06T01:01:44.195Z,13.5
2019-05-06T01:02:44.868Z,13.9
2019-05-06T01:03:45.549Z,13.8
2019-05-06T01:04:46.227Z,13.6
2019-05-06T01:05:46.956Z,14.1
2019-05-06T01:06:47.590Z,13.7
2019-05-06T01:07:48.318Z,13.9
2019-05-06T01:08:49.003Z,13.8
2019-05-06T01:09:49.681Z,13.4
2019-05-06T01:10:50.559Z,15.0
2019-05-06T01:11:51.237Z,13.9
2019-05-06T01:12:51.917Z,14.3
2019-05-06T01:13:54.424Z,15.2
2019-05-06T01:14:54.499Z,15.1
2019-05-06T01:15:54.802Z,14.3
2019-05-06T01:16:54.843Z,13.6
2019-05-06T01:17:55.345Z,14.0
2019-05-06T01:18:56.006Z,14.0
2019-05-06T01:19:56.700Z,14.1
2019-05-06T01:20:57.397Z,13.2
2019-05-06T01:21:58.059Z,14.1
2019-05-06T01:22:58.737Z,13.8
2019-05-06T01:23:59.420Z,14.5
2019-05-06T01:25:00.105Z,13.7
2019-05-06T01:26:00.791Z,13.9
2019-05-06T01:27:01.475Z,13.8
2019-05-06T01:28:04.137Z,14.7
2019-05-06T01:29:03.900Z,13.8
2019-05-06T01:30:04.376Z,14.5
2019-05-06T01:31:04.284Z,13.6
2019-05-06T01:32:04.863Z,13.6
2019-05-06T01:33:05.531Z,13.8
2019-05-06T01:34:06.217Z,15.4
2019-05-06T01:35:06.904Z,13.6
2019-05-06T01:36:07.578Z,13.6
2019-05-06T01:37:08.258Z,13.9
2019-05-06T01:38:08.943Z,13.5
2019-05-06T01:39:09.624Z,14.3
2019-05-06T01:40:10.304Z,14.5
2019-05-06T01:41:10.983Z,14.2
2019-05-06T01:42:13.752Z,14.8
2019-05-06T01:43:14.400Z,15.3
2019-05-06T01:44:13.979Z,14.4
2019-05-06T01:45:14.665Z,15.3
2019-05-06T01:46:15.341Z,15.8
2019-05-06T01:47:16.031Z,15.1
2019-05-06T01:48:16.700Z,14.2
2019-05-06T01:49:17.384Z,15.3
2019-05-06T01:50:18.059Z,14.6
2019-05-06T01:51:18.748Z,14.8
2019-05-06T01:52:19.418Z,16.1
2019-05-06T01:53:20.102Z,16.0
2019-05-06T01:54:20.788Z,15.9
2019-05-06T01:55:23.765Z,16.1
2019-05-06T01:56:23.983Z,16.2
2019-05-06T01:57:24.422Z,16.5
2019-05-06T01:58:24.260Z,15.6
2019-05-06T01:59:24.731Z,13.8
2019-05-06T02:00:24.867Z,15.4
2019-05-06T02:01:25.541Z,14.8
2019-05-06T02:02:26.219Z,15.1
2019-05-06T02:03:26.912Z,16.7
2019-05-06T02:04:27.582Z,14.7
2019-05-06T02:05:28.262Z,16.4
2019-05-06T02:06:28.951Z,15.0
2019-05-06T02:07:29.621Z,16.2
2019-05-06T02:08:30.303Z,15.2
2019-05-06T02:09:30.981Z,15.9
2019-05-06T02:10:31.663Z,15.8
2019-05-06T02:11:33.782Z,15.2
2019-05-06T02:12:34.210Z,15.9
2019-05-06T02:13:34.890Z,15.4
2019-05-06T02:14:34.435Z,16.3
2019-05-06T02:15:35.058Z,16.2
2019-05-06T02:16:35.749Z,16.0
2019-05-06T02:17:36.428Z,17.7
2019-05-06T02:18:37.116Z,16.4
2019-05-06T02:19:37.799Z,17.3
2019-05-06T02:20:38.467Z,16.9
2019-05-06T02:21:39.150Z,16.7
2019-05-06T02:22:39.831Z,17.2
2019-05-06T02:23:40.512Z,16.7
2019-05-06T02:24:41.191Z,17.3
2019-05-06T02:25:41.871Z,16.2
2019-05-06T02:26:43.697Z,17.8
2019-05-06T02:27:44.542Z,17.7
2019-05-06T02:28:43.912Z,17.0
2019-05-06T02:29:44.587Z,17.3
2019-05-06T02:30:45.564Z,18.0
2019-05-06T02:31:46.223Z,18.2
2019-05-06T02:32:46.587Z,17.3
2019-05-06T02:33:47.323Z,16.6
2019-05-06T02:34:48.014Z,17.1
2019-05-06T02:35:48.681Z,17.8
2019-05-06T02:36:49.384Z,15.5
2019-05-06T02:37:50.059Z,17.1
2019-05-06T02:38:52.402Z,17.6
2019-05-06T02:39:53.294Z,16.9
2019-05-06T02:40:53.534Z,17.0
2019-05-06T02:41:54.819Z,16.6
2019-05-06T02:42:54.600Z,16.2
2019-05-06T02:43:54.383Z,18.4
2019-05-06T02:44:54.808Z,16.3
2019-05-06T02:45:55.487Z,17.0
2019-05-06T02:46:56.149Z,16.8
2019-05-06T02:47:56.829Z,17.4
2019-05-06T02:48:57.522Z,16.3
2019-05-06T02:49:58.201Z,15.9
2019-05-06T02:50:58.878Z,16.6
2019-05-06T02:52:02.361Z,16.9
2019-05-06T02:53:02.671Z,15.7
2019-05-06T02:54:03.225Z,16.7
2019-05-06T02:55:01.604Z,16.8
2019-05-06T02:56:04.105Z,16.3
2019-05-06T02:57:04.225Z,16.5
2019-05-06T02:58:03.644Z,16.1
2019-05-06T02:59:04.359Z,16.2
2019-05-06T03:00:05.461Z,14.6
2019-05-06T03:01:06.148Z,15.5
2019-05-06T03:02:06.780Z,15.1
2019-05-06T03:03:07.466Z,14.9
2019-05-06T03:04:08.145Z,14.8
2019-05-06T03:05:08.823Z,15.4
2019-05-06T03:06:09.505Z,14.8
2019-05-06T03:07:10.184Z,15.1
2019-05-06T03:08:13.508Z,15.4
2019-05-06T03:09:13.454Z,15.4
2019-05-06T03:10:12.938Z,14.8
2019-05-06T03:11:13.837Z,15.3
2019-05-06T03:12:14.017Z,14.8
2019-05-06T03:13:14.573Z,15.6
2019-05-06T03:14:14.939Z,15.2
2019-05-06T03:15:16.785Z,14.8
2019-05-06T03:16:16.306Z,14.5
2019-05-06T03:17:16.976Z,14.3
2019-05-06T03:18:17.652Z,14.4
2019-05-06T03:19:18.332Z,13.8
2019-05-06T03:20:19.015Z,14.6
2019-05-06T03:21:19.693Z,14.2
2019-05-06T03:22:20.376Z,14.5
2019-05-06T03:23:23.734Z,13.2
2019-05-06T03:24:23.624Z,14.8
2019-05-06T03:25:24.029Z,13.4
2019-05-06T03:26:23.624Z,13.7
2019-05-06T03:27:23.768Z,15.0
2019-05-06T03:28:24.452Z,13.5
2019-05-06T03:29:25.481Z,13.7
2019-05-06T03:30:26.060Z,13.7
2019-05-06T03:31:26.779Z,12.7
2019-05-06T03:32:30.663Z,11.9
2019-05-06T03:33:46.717Z,12.9
2019-05-06T03:34:52.971Z,12.6
2019-05-06T03:35:44.138Z,12.4
2019-05-06T03:36:34.613Z,11.4
2019-05-06T03:37:33.292Z,11.6
2019-05-06T03:38:33.452Z,10.9
2019-05-06T03:39:33.799Z,11.2
2019-05-06T03:40:36.062Z,11.5
2019-05-06T03:41:33.798Z,11.7
2019-05-06T03:42:33.939Z,10.6
2019-05-06T03:43:34.623Z,10.9
2019-05-06T03:44:35.308Z,11.1
2019-05-06T03:45:36.001Z,11.1
2019-05-06T03:46:36.683Z,11.3
2019-05-06T03:47:37.373Z,10.6
2019-05-06T03:48:38.063Z,10.0
2019-05-06T03:49:38.730Z,10.6
2019-05-06T03:50:39.417Z,10.2
2019-05-06T03:51:42.766Z,9.8
2019-05-06T03:52:43.039Z,10.5
2019-05-06T03:53:43.319Z,11.1
2019-05-06T03:54:45.070Z,9.9
2019-05-06T03:55:46.500Z,10.2
2019-05-06T03:56:43.549Z,9.4
2019-05-06T03:57:44.196Z,10.8
2019-05-06T03:58:44.882Z,9.9
2019-05-06T03:59:45.564Z,9.5
2019-05-06T04:00:46.246Z,9.8
2019-05-06T04:01:46.934Z,9.4
2019-05-06T04:02:47.623Z,10.3
2019-05-06T04:03:52.755Z,8.8
2019-05-06T04:04:48.992Z,9.2
2019-05-06T04:05:49.665Z,9.4
2019-05-06T04:06:53.124Z,10.0
2019-05-06T04:07:53.043Z,9.4
2019-05-06T04:08:52.882Z,8.6
2019-05-06T04:09:53.516Z,9.0
2019-05-06T04:10:53.803Z,9.1
2019-05-06T04:11:54.261Z,8.9
2019-05-06T04:12:54.448Z,8.7
2019-05-06T04:13:55.136Z,8.5
2019-05-06T04:14:55.834Z,9.5
2019-05-06T04:15:56.511Z,8.9
2019-05-06T04:16:57.205Z,9.9
2019-05-06T04:17:57.878Z,9.7
2019-05-06T04:18:58.559Z,9.3
2019-05-06T04:19:59.255Z,9.2
2019-05-06T04:20:59.931Z,8.7
2019-05-06T04:22:03.512Z,9.6
2019-05-06T04:23:06.002Z,9.2
2019-05-06T04:24:04.121Z,9.5
2019-05-06T04:25:04.028Z,8.6
2019-05-06T04:26:03.727Z,9.5
2019-05-06T04:27:04.012Z,8.3
2019-05-06T04:28:04.698Z,9.1
2019-05-06T04:29:05.398Z,8.8
2019-05-06T04:30:06.072Z,9.2
2019-05-06T04:31:06.757Z,9.9
2019-05-06T04:32:07.440Z,9.4
2019-05-06T04:33:08.131Z,8.5
2019-05-06T04:34:14.651Z,9.0
2019-05-06T04:35:09.509Z,9.9
2019-05-06T04:36:12.982Z,8.8
2019-05-06T04:37:10.885Z,9.6
2019-05-06T04:38:13.910Z,9.4
2019-05-06T04:39:13.140Z,9.0
2019-05-06T04:40:13.227Z,8.7
2019-05-06T04:41:13.788Z,8.4
2019-05-06T04:42:14.300Z,9.6
2019-05-06T04:43:14.983Z,8.2
2019-05-06T04:44:15.670Z,9.6
2019-05-06T04:45:17.348Z,8.6
2019-05-06T04:46:17.218Z,9.3
2019-05-06T04:47:17.714Z,9.3
2019-05-06T04:48:18.400Z,9.7
2019-05-06T04:49:19.086Z,9.6
2019-05-06T04:50:19.787Z,8.6
2019-05-06T04:51:20.463Z,9.8
2019-05-06T04:52:22.877Z,9.4
2019-05-06T04:53:23.801Z,9.1
2019-05-06T04:54:26.129Z,10.1
2019-05-06T04:55:23.207Z,9.9
2019-05-06T04:56:23.998Z,9.1
2019-05-06T04:57:24.562Z,9.1
2019-05-06T04:58:25.245Z,9.7
2019-05-06T04:59:25.948Z,9.5
2019-05-06T05:00:26.625Z,9.6
2019-05-06T05:01:27.324Z,8.7
2019-05-06T05:02:28.011Z,10.3
2019-05-06T05:03:28.688Z,9.1
2019-05-06T05:04:32.423Z,9.9
2019-05-06T05:05:32.825Z,9.4
2019-05-06T05:06:32.819Z,9.1
2019-05-06T05:07:33.373Z,8.8
2019-05-06T05:08:33.188Z,8.7
2019-05-06T05:09:32.827Z,9.2
2019-05-06T05:10:33.486Z,9.1
2019-05-06T05:11:34.175Z,9.6
2019-05-06T05:12:34.859Z,8.8
2019-05-06T05:13:35.545Z,8.7
2019-05-06T05:14:36.239Z,9.0
2019-05-06T05:15:36.927Z,8.5
2019-05-06T05:16:37.607Z,9.1
2019-05-06T05:17:38.291Z,9.9
2019-05-06T05:18:38.981Z,9.3
2019-05-06T05:19:39.666Z,8.7
2019-05-06T05:20:45.628Z,9.4
2019-05-06T05:21:42.877Z,9.1
2019-05-06T05:22:42.369Z,8.8
2019-05-06T05:23:42.901Z,9.1
2019-05-06T05:24:43.090Z,8.7
2019-05-06T05:25:43.781Z,8.6
2019-05-06T05:26:47.058Z,8.2
2019-05-06T05:27:45.158Z,7.6
2019-05-06T05:28:45.847Z,7.5
2019-05-06T05:29:46.498Z,7.7
2019-05-06T05:30:47.183Z,8.6
2019-05-06T05:31:47.883Z,7.6
2019-05-06T05:32:48.563Z,8.3
2019-05-06T05:33:49.254Z,7.8
2019-05-06T05:34:52.104Z,7.5
2019-05-06T05:35:52.554Z,7.3
2019-05-06T05:36:52.046Z,8.1
2019-05-06T05:37:52.972Z,7.0
2019-05-06T05:38:52.805Z,7.4
2019-05-06T05:39:53.500Z,7.4
2019-05-06T05:40:54.182Z,7.3
2019-05-06T05:41:54.889Z,7.7
2019-05-06T05:42:55.563Z,8.0
2019-05-06T05:43:56.250Z,7.9
2019-05-06T05:44:56.967Z,6.8
2019-05-06T05:45:57.630Z,7.9
2019-05-06T05:46:58.316Z,7.9
2019-05-06T05:47:59.005Z,7.6
2019-05-06T05:48:59.699Z,7.4
2019-05-06T05:50:02.773Z,7.3
2019-05-06T05:51:03.214Z,7.3
2019-05-06T05:52:03.477Z,7.8
2019-05-06T05:53:02.603Z,7.3
2019-05-06T05:54:03.234Z,6.9
2019-05-06T05:55:03.905Z,7.6
2019-05-06T05:56:04.552Z,7.3
2019-05-06T05:57:05.255Z,7.4
2019-05-06T05:58:05.945Z,7.5
2019-05-06T05:59:06.637Z,7.4
2019-05-06T06:00:07.328Z,7.2
2019-05-06T06:01:08.020Z,7.2
2019-05-06T06:02:08.712Z,6.8
2019-05-06T06:03:09.402Z,7.1
2019-05-06T06:04:10.094Z,7.0
2019-05-06T06:05:12.435Z,7.3
2019-05-06T06:06:12.640Z,7.0
2019-05-06T06:07:12.228Z,6.8
2019-05-06T06:08:13.051Z,6.9
2019-05-06T06:09:13.523Z,7.5
2019-05-06T06:10:14.212Z,6.8
2019-05-06T06:11:14.901Z,6.7
2019-05-06T06:12:15.594Z,7.7
2019-05-06T06:13:16.278Z,6.8
2019-05-06T06:14:16.972Z,7.5
2019-05-06T06:15:17.662Z,7.1
2019-05-06T06:16:18.342Z,7.9
2019-05-06T06:17:19.003Z,7.0
2019-05-06T06:18:19.693Z,6.8
2019-05-06T06:19:22.139Z,7.6
2019-05-06T06:20:22.100Z,6.5
2019-05-06T06:21:27.281Z,6.8
2019-05-06T06:22:22.864Z,6.9
2019-05-06T06:23:23.159Z,7.2
2019-05-06T06:24:23.839Z,6.5
2019-05-06T06:25:24.501Z,6.7
2019-05-06T06:26:25.189Z,6.5
2019-05-06T06:27:25.879Z,7.2
2019-05-06T06:28:26.569Z,6.5
2019-05-06T06:29:27.267Z,6.6
2019-05-06T06:30:27.949Z,5.8
2019-05-06T06:31:28.648Z,7.0
2019-05-06T06:32:29.342Z,5.5
2019-05-06T06:33:30.016Z,6.2
2019-05-06T06:34:32.855Z,6.2
2019-05-06T06:35:32.392Z,6.7
2019-05-06T06:36:33.040Z,7.1
2019-05-06T06:37:33.731Z,6.8
2019-05-06T06:38:34.414Z,6.1
2019-05-06T06:39:35.107Z,6.3
2019-05-06T06:40:35.799Z,6.9
2019-05-06T06:41:36.483Z,6.0
2019-05-06T06:42:37.175Z,6.3
2019-05-06T06:43:37.861Z,5.6
2019-05-06T06:44:38.549Z,6.6
2019-05-06T06:45:39.250Z,6.2
2019-05-06T06:46:39.933Z,5.6
2019-05-06T06:47:42.466Z,5.7
2019-05-06T06:48:43.056Z,6.6
2019-05-06T06:49:42.527Z,6.7
2019-05-06T06:50:42.774Z,6.0
2019-05-06T06:51:43.416Z,6.0
2019-05-06T06:52:44.102Z,6.7
2019-05-06T06:53:44.790Z,5.9
2019-05-06T06:54:45.478Z,5.6
2019-05-06T06:55:46.172Z,6.2
2019-05-06T06:56:46.874Z,6.4
2019-05-06T06:57:47.555Z,5.8
2019-05-06T06:58:48.248Z,5.3
2019-05-06T06:59:48.932Z,5.4
2019-05-06T07:00:49.630Z,5.2
2019-05-06T07:01:50.316Z,5.4
2019-05-06T07:02:52.466Z,5.1
2019-05-06T07:03:52.817Z,5.1
2019-05-06T07:04:52.635Z,5.2
2019-05-06T07:05:53.069Z,5.1
2019-05-06T07:06:53.758Z,5.1
2019-05-06T07:07:54.452Z,5.4
2019-05-06T07:08:55.140Z,5.5
2019-05-06T07:09:55.836Z,5.1
2019-05-06T07:10:56.527Z,4.4
2019-05-06T07:11:57.219Z,4.6
2019-05-06T07:12:57.913Z,5.0
2019-05-06T07:13:58.606Z,4.6
2019-05-06T07:14:59.298Z,5.2
2019-05-06T07:15:59.990Z,4.9
2019-05-06T07:17:02.448Z,4.4
2019-05-06T07:18:02.336Z,5.0
2019-05-06T07:19:03.121Z,5.3
2019-05-06T07:20:02.976Z,4.7
2019-05-06T07:21:05.369Z,4.6
2019-05-06T07:22:06.771Z,4.7
2019-05-06T07:23:04.830Z,4.7
2019-05-06T07:24:05.588Z,5.3
2019-05-06T07:25:06.289Z,5.5
2019-05-06T07:26:06.988Z,5.0
2019-05-06T07:27:07.670Z,5.5
2019-05-06T07:28:08.364Z,5.7
2019-05-06T07:29:16.797Z,5.4
2019-05-06T07:30:12.188Z,4.8
2019-05-06T07:31:21.153Z,4.4
2019-05-06T07:32:12.362Z,4.4
2019-05-06T07:33:13.293Z,5.4
2019-05-06T07:34:13.472Z,5.0
2019-05-06T07:35:14.164Z,5.0
2019-05-06T07:36:14.861Z,4.9
2019-05-06T07:37:15.547Z,4.4
2019-05-06T07:38:16.249Z,5.1
2019-05-06T07:39:16.948Z,4.9
2019-05-06T07:40:17.637Z,4.2
2019-05-06T07:41:18.329Z,4.3
2019-05-06T07:42:19.021Z,4.7
2019-05-06T07:43:21.898Z,5.4
2019-05-06T07:44:22.435Z,5.0
2019-05-06T07:45:22.126Z,4.6
2019-05-06T07:46:23.539Z,5.4
2019-05-06T07:47:23.979Z,4.8
2019-05-06T07:48:24.130Z,5.9
2019-05-06T07:49:24.823Z,4.6
2019-05-06T07:50:25.516Z,4.8
2019-05-06T07:51:26.182Z,4.6
2019-05-06T07:52:26.875Z,4.4
2019-05-06T07:53:27.568Z,4.8
2019-05-06T07:54:28.261Z,4.7
2019-05-06T07:55:28.961Z,5.3
2019-05-06T07:56:32.072Z,4.7
2019-05-06T07:57:30.339Z,5.1
2019-05-06T07:58:32.247Z,4.8
2019-05-06T07:59:33.428Z,4.9
2019-05-06T08:00:32.865Z,4.9
2019-05-06T08:01:33.346Z,5.1
2019-05-06T08:02:33.795Z,5.0
2019-05-06T08:03:34.482Z,4.3
2019-05-06T08:04:35.191Z,4.5
2019-05-06T08:05:35.885Z,4.7
2019-05-06T08:06:36.566Z,4.8
2019-05-06T08:07:37.270Z,4.9
2019-05-06T08:08:37.952Z,5.1
2019-05-06T08:09:38.645Z,4.4
2019-05-06T08:10:39.345Z,4.8
2019-05-06T08:11:42.082Z,4.7
2019-05-06T08:12:42.735Z,5.5
2019-05-06T08:13:43.437Z,4.2
2019-05-06T08:14:43.073Z,4.5
2019-05-06T08:15:42.795Z,5.0
2019-05-06T08:16:44.433Z,5.0
2019-05-06T08:17:44.169Z,4.2
2019-05-06T08:18:44.830Z,4.3
2019-05-06T08:19:45.526Z,4.0
2019-05-06T08:20:46.234Z,4.5
2019-05-06T08:21:46.904Z,4.3
2019-05-06T08:22:47.596Z,4.1
2019-05-06T08:23:48.288Z,4.8
2019-05-06T08:24:48.983Z,4.1
2019-05-06T08:25:49.646Z,4.0
2019-05-06T08:26:52.159Z,4.4
2019-05-06T08:27:53.064Z,5.2
2019-05-06T08:28:52.723Z,3.9
2019-05-06T08:29:52.646Z,4.3
2019-05-06T08:30:53.266Z,3.8
2019-05-06T08:31:53.781Z,4.3
2019-05-06T08:32:54.474Z,4.1
2019-05-06T08:33:55.165Z,3.9
2019-05-06T08:34:55.863Z,4.0
2019-05-06T08:36:10.552Z,4.1
2019-05-06T08:36:57.243Z,4.4
2019-05-06T08:37:57.933Z,4.2
2019-05-06T08:38:58.629Z,4.5
2019-05-06T08:39:59.346Z,3.8
2019-05-06T08:41:00.017Z,3.6
2019-05-06T08:42:02.618Z,4.0
2019-05-06T08:43:02.193Z,4.1
2019-05-06T08:44:02.780Z,4.5
2019-05-06T08:45:02.781Z,4.0
2019-05-06T08:46:03.489Z,3.7
2019-05-06T08:47:04.186Z,4.4
2019-05-06T08:48:04.867Z,4.1
2019-05-06T08:49:05.558Z,3.9
2019-05-06T08:50:06.250Z,3.6
2019-05-06T08:51:09.075Z,3.6
2019-05-06T08:52:07.641Z,4.2
2019-05-06T08:53:08.336Z,3.9
2019-05-06T08:54:09.034Z,4.0
2019-05-06T08:55:09.734Z,4.0
2019-05-06T08:56:12.581Z,4.2
2019-05-06T08:57:11.880Z,3.5
2019-05-06T08:58:13.823Z,3.9
2019-05-06T08:59:14.030Z,4.2
2019-05-06T09:00:13.155Z,3.7
2019-05-06T09:01:13.847Z,4.5
2019-05-06T09:02:14.543Z,4.2
2019-05-06T09:03:15.248Z,3.4
2019-05-06T09:04:16.523Z,3.8
2019-05-06T09:05:16.632Z,4.0
2019-05-06T09:06:27.546Z,4.4
2019-05-06T09:07:18.014Z,3.7
2019-05-06T09:08:18.709Z,3.6
2019-05-06T09:09:19.405Z,3.3
2019-05-06T09:10:20.096Z,3.5
2019-05-06T09:11:25.223Z,3.2
2019-05-06T09:12:22.346Z,4.2
2019-05-06T09:13:23.192Z,4.1
2019-05-06T09:14:23.489Z,3.7
2019-05-06T09:15:23.614Z,3.7
2019-05-06T09:16:24.315Z,3.5
2019-05-06T09:17:24.999Z,3.6
2019-05-06T09:18:25.698Z,2.8
2019-05-06T09:19:26.397Z,3.6
2019-05-06T09:20:27.088Z,3.4
2019-05-06T09:21:27.785Z,3.6
2019-05-06T09:22:28.490Z,3.5
2019-05-06T09:23:29.177Z,3.2
2019-05-06T09:24:31.943Z,3.7
2019-05-06T09:25:32.308Z,4.1
2019-05-06T09:26:32.391Z,3.7
2019-05-06T09:27:32.776Z,3.7
2019-05-06T09:28:33.901Z,4.0
2019-05-06T09:29:33.334Z,3.2
2019-05-06T09:30:34.017Z,3.6
2019-05-06T09:31:34.717Z,3.7
2019-05-06T09:32:36.046Z,5.5
2019-05-06T09:33:36.113Z,3.8
2019-05-06T09:34:36.795Z,3.3
2019-05-06T09:35:37.492Z,3.8
2019-05-06T09:36:44.938Z,3.3
2019-05-06T09:37:38.877Z,3.5
2019-05-06T09:38:39.574Z,3.2
2019-05-06T09:39:42.906Z,3.3
2019-05-06T09:40:43.086Z,3.4
2019-05-06T09:41:46.568Z,3.6
2019-05-06T09:42:42.684Z,3.1
2019-05-06T09:43:43.472Z,3.4
2019-05-06T09:44:43.798Z,3.6
2019-05-06T09:45:44.489Z,3.6
2019-05-06T09:46:45.201Z,3.3
2019-05-06T09:47:45.879Z,3.1
2019-05-06T09:48:46.563Z,3.3
2019-05-06T09:49:47.260Z,3.5
2019-05-06T09:50:47.945Z,4.4
2019-05-06T09:51:48.637Z,4.3
2019-05-06T09:52:49.329Z,4.1
2019-05-06T09:53:50.035Z,3.1
2019-05-06T09:54:53.347Z,3.8
2019-05-06T09:55:52.297Z,5.7
2019-05-06T09:56:53.299Z,8.9
2019-05-06T09:57:52.806Z,9.1
2019-05-06T09:58:53.518Z,4.8
2019-05-06T09:59:54.212Z,9.1
2019-05-06T10:00:54.901Z,4.9
2019-05-06T10:01:55.599Z,4.8
2019-05-06T10:02:56.303Z,4.7
2019-05-06T10:03:57.003Z,3.5
2019-05-06T10:04:57.698Z,3.7
2019-05-06T10:05:58.394Z,3.4
2019-05-06T10:07:00.081Z,3.7
2019-05-06T10:07:59.785Z,4.0
2019-05-06T10:09:04.395Z,3.6
2019-05-06T10:10:01.176Z,3.3
2019-05-06T10:11:03.182Z,3.5
2019-05-06T10:12:02.559Z,3.8
2019-05-06T10:13:03.255Z,3.6
2019-05-06T10:14:03.948Z,3.7
2019-05-06T10:15:04.644Z,3.5
2019-05-06T10:16:05.337Z,3.2
2019-05-06T10:17:06.036Z,3.6
2019-05-06T10:18:06.735Z,3.9
2019-05-06T10:19:07.423Z,3.1
2019-05-06T10:20:08.129Z,3.4
2019-05-06T10:21:08.816Z,3.2
2019-05-06T10:22:09.514Z,3.9
2019-05-06T10:23:10.230Z,3.7
2019-05-06T10:24:10.913Z,3.6
2019-05-06T10:25:12.259Z,3.2
2019-05-06T10:26:13.004Z,3.3
2019-05-06T10:27:13.000Z,3.7
2019-05-06T10:28:13.697Z,3.8
2019-05-06T10:29:14.395Z,3.0
2019-05-06T10:30:15.091Z,3.4
2019-05-06T10:31:15.756Z,3.3
2019-05-06T10:32:16.456Z,3.3
2019-05-06T10:33:17.157Z,3.7
2019-05-06T10:34:17.851Z,2.7
2019-05-06T10:35:18.554Z,3.6
2019-05-06T10:36:19.245Z,3.9
2019-05-06T10:37:19.966Z,3.5
2019-05-06T10:38:22.635Z,3.5
2019-05-06T10:39:22.933Z,3.7
2019-05-06T10:40:22.656Z,3.8
2019-05-06T10:41:22.717Z,3.9
2019-05-06T10:42:23.415Z,3.6
2019-05-06T10:43:24.124Z,3.5
2019-05-06T10:44:24.815Z,4.0
2019-05-06T10:45:25.511Z,3.7
2019-05-06T10:46:26.207Z,4.1
2019-05-06T10:47:26.903Z,4.0
2019-05-06T10:48:27.600Z,4.6
2019-05-06T10:49:28.295Z,4.9
2019-05-06T10:50:28.991Z,4.2
2019-05-06T10:51:32.228Z,4.4
2019-05-06T10:52:30.412Z,4.5
2019-05-06T10:53:32.962Z,4.1
2019-05-06T10:54:31.930Z,4.4
2019-05-06T10:55:32.682Z,4.2
2019-05-06T10:56:33.225Z,4.1
2019-05-06T10:57:33.916Z,3.9
2019-05-06T10:58:34.622Z,4.5
2019-05-06T10:59:35.316Z,3.8
2019-05-06T11:00:36.012Z,3.9
2019-05-06T11:01:36.708Z,3.8
2019-05-06T11:02:37.414Z,4.3
2019-05-06T11:03:38.105Z,4.4
2019-05-06T11:04:38.796Z,4.4
2019-05-06T11:05:39.523Z,4.6
2019-05-06T11:06:40.215Z,4.0
2019-05-06T11:07:42.932Z,3.9
2019-05-06T11:08:42.172Z,4.5
2019-05-06T11:09:42.694Z,4.3
2019-05-06T11:10:45.294Z,4.2
2019-05-06T11:11:43.724Z,4.2
2019-05-06T11:12:44.422Z,4.1
2019-05-06T11:13:45.118Z,4.4
2019-05-06T11:14:45.818Z,4.3
2019-05-06T11:15:46.518Z,3.4
2019-05-06T11:16:47.220Z,3.7
2019-05-06T11:17:47.914Z,4.1
2019-05-06T11:18:48.616Z,4.3
2019-05-06T11:19:49.308Z,3.7
2019-05-06T11:20:55.736Z,3.7
2019-05-06T11:21:53.042Z,3.4
2019-05-06T11:22:52.839Z,4.1
2019-05-06T11:23:52.633Z,4.0
2019-05-06T11:24:52.779Z,3.7
2019-05-06T11:25:53.469Z,3.6
2019-05-06T11:26:54.175Z,3.5
2019-05-06T11:27:54.874Z,3.6
2019-05-06T11:28:55.530Z,3.3
2019-05-06T11:29:56.232Z,3.2
2019-05-06T11:30:56.930Z,3.8
2019-05-06T11:31:57.627Z,3.8
2019-05-06T11:32:58.327Z,3.0
2019-05-06T11:33:59.025Z,3.3
2019-05-06T11:34:59.744Z,3.0
2019-05-06T11:36:00.421Z,2.7
2019-05-06T11:37:01.118Z,3.3
2019-05-06T11:38:01.807Z,3.5
2019-05-06T11:39:02.506Z,3.4
2019-05-06T11:40:03.204Z,3.7
2019-05-06T11:41:03.900Z,4.0
2019-05-06T11:42:23.809Z,3.6
2019-05-06T11:43:05.285Z,3.8
2019-05-06T11:44:09.046Z,3.6
2019-05-06T11:45:06.685Z,3.2
2019-05-06T11:46:07.380Z,3.3
2019-05-06T11:47:08.078Z,3.1
2019-05-06T11:48:08.772Z,3.0
2019-05-06T11:49:09.472Z,3.4
2019-05-06T11:50:10.185Z,2.8
2019-05-06T11:51:12.807Z,3.3
2019-05-06T11:52:13.004Z,3.1
2019-05-06T11:53:12.539Z,3.3
2019-05-06T11:54:17.499Z,3.3
2019-05-06T11:55:27.501Z,3.7
2019-05-06T11:56:14.341Z,3.3
2019-05-06T11:57:15.043Z,3.4
2019-05-06T11:58:15.710Z,3.0
2019-05-06T11:59:16.409Z,3.3
2019-05-06T12:00:17.122Z,3.2
2019-05-06T12:01:17.803Z,3.6
2019-05-06T12:02:18.511Z,3.2
2019-05-06T12:03:19.197Z,2.8
2019-05-06T12:04:22.296Z,3.2
2019-05-06T12:05:22.373Z,3.2
2019-05-06T12:06:22.699Z,3.3
2019-05-06T12:07:24.508Z,3.3
2019-05-06T12:08:22.677Z,3.2
2019-05-06T12:09:23.344Z,3.6
2019-05-06T12:10:24.040Z,3.0
2019-05-06T12:11:24.736Z,2.8
2019-05-06T12:12:25.434Z,3.1
2019-05-06T12:13:26.137Z,2.9
2019-05-06T12:14:26.836Z,2.9
2019-05-06T12:15:27.531Z,2.9
2019-05-06T12:16:28.237Z,3.3
2019-05-06T12:17:28.930Z,2.4
2019-05-06T12:18:29.636Z,2.8
2019-05-06T12:19:32.238Z,2.0
2019-05-06T12:20:32.838Z,2.8
2019-05-06T12:21:33.016Z,3.2
2019-05-06T12:22:32.390Z,3.1
2019-05-06T12:23:35.431Z,3.1
2019-05-06T12:24:33.776Z,3.1
2019-05-06T12:25:34.481Z,3.0
2019-05-06T12:26:35.179Z,2.7
2019-05-06T12:27:35.869Z,2.7
2019-05-06T12:28:36.560Z,2.9
2019-05-06T12:29:38.474Z,3.1
2019-05-06T12:30:37.956Z,3.3
2019-05-06T12:31:38.652Z,3.3
2019-05-06T12:32:39.349Z,3.8
2019-05-06T12:33:42.578Z,5.1
2019-05-06T12:34:42.848Z,3.3
2019-05-06T12:35:42.787Z,2.8
2019-05-06T12:36:42.816Z,3.4
2019-05-06T12:37:44.047Z,3.2
2019-05-06T12:38:43.505Z,2.6
2019-05-06T12:39:44.205Z,3.2
2019-05-06T12:40:44.908Z,3.3
2019-05-06T12:41:45.600Z,3.3
2019-05-06T12:42:46.297Z,3.1
2019-05-06T12:43:46.989Z,2.9
2019-05-06T12:44:47.705Z,3.4
2019-05-06T12:45:48.383Z,3.0
2019-05-06T12:46:49.085Z,2.8
2019-05-06T12:47:49.779Z,3.0
2019-05-06T12:48:52.119Z,2.8
2019-05-06T12:49:53.310Z,2.9
2019-05-06T12:50:52.574Z,2.9
2019-05-06T12:51:53.818Z,2.4
2019-05-06T12:52:53.243Z,2.9
2019-05-06T12:53:53.938Z,2.6
2019-05-06T12:55:13.676Z,2.6
2019-05-06T12:55:55.329Z,2.8
2019-05-06T12:56:56.029Z,2.3
2019-05-06T12:57:56.737Z,2.5
2019-05-06T12:58:57.430Z,2.6
2019-05-06T12:59:58.121Z,2.4
2019-05-06T13:00:58.815Z,2.6
2019-05-06T13:01:59.509Z,2.2
2019-05-06T13:03:02.280Z,2.6
2019-05-06T13:04:04.140Z,2.6
2019-05-06T13:05:03.903Z,2.2
2019-05-06T13:06:07.629Z,2.5
2019-05-06T13:07:03.188Z,2.3
2019-05-06T13:08:05.657Z,2.4
2019-05-06T13:09:05.335Z,2.2
2019-05-06T13:10:05.103Z,2.2
2019-05-06T13:11:05.802Z,2.3
2019-05-06T13:12:06.499Z,2.7
2019-05-06T13:13:07.194Z,2.7
2019-05-06T13:14:07.893Z,2.3
2019-05-06T13:15:08.566Z,2.3
2019-05-06T13:16:09.265Z,2.8
2019-05-06T13:17:09.965Z,2.7
2019-05-06T13:18:10.653Z,2.5
2019-05-06T13:19:12.146Z,2.7
2019-05-06T13:20:14.657Z,2.9
2019-05-06T13:21:12.894Z,2.9
2019-05-06T13:22:13.628Z,2.7
2019-05-06T13:23:20.951Z,3.2
2019-05-06T13:24:14.827Z,3.0
2019-05-06T13:25:15.529Z,2.6
2019-05-06T13:26:16.223Z,3.0
2019-05-06T13:27:16.921Z,2.9
2019-05-06T13:28:17.618Z,2.7
2019-05-06T13:29:18.314Z,2.5
2019-05-06T13:30:19.014Z,2.6
2019-05-06T13:31:21.511Z,2.1
2019-05-06T13:32:20.437Z,2.3
2019-05-06T13:33:21.205Z,2.4
2019-05-06T13:34:23.467Z,2.3
2019-05-06T13:35:23.137Z,2.5
2019-05-06T13:36:23.245Z,2.5
2019-05-06T13:37:23.996Z,2.7
2019-05-06T13:38:24.704Z,2.3
2019-05-06T13:39:25.399Z,2.5
2019-05-06T13:40:27.269Z,2.3
2019-05-06T13:41:26.788Z,2.3
2019-05-06T13:42:27.485Z,3.1
2019-05-06T13:43:28.243Z,2.5
2019-05-06T13:44:28.916Z,2.6
2019-05-06T13:45:32.488Z,2.6
2019-05-06T13:46:32.897Z,2.5
2019-05-06T13:47:32.236Z,2.6